ADDS METAR Data INFO
IDs: Format: Raw Decoded Include TAF

Data at: 0109 UTC 21 Oct 2017

KIZG 210054Z AUTO 00000KT 10SM CLR 08/04 A3007 RMK AO2 SLP185 T00780039
KIZG 202354Z AUTO 00000KT 10SM CLR 08/05 A3006 RMK AO2 SLP181 T00780050 10194 20072 51027
KIZG 202254Z AUTO 00000KT 10SM CLR 12/04 A3003 RMK AO2 SLP172 T01170039
KIZG 202154Z AUTO 27004KT 10SM CLR 11/07 A3000 RMK AO2 SLP161 T01110067
KIZG 202054Z AUTO 28004KT 10SM CLR 18/02 A2997 RMK AO2 SLP151 T01780022 53003
KIZG 201954Z AUTO 27010G17KT 10SM CLR 19/03 A2997 RMK AO2 SLP148 T01890028
KIZG 201854Z AUTO 29010G16KT 260V330 10SM CLR 19/03 A2996 RMK AO2 SLP146 T01940033
KIZG 201754Z AUTO 27007G16KT 230V320 10SM CLR 19/03 A2997 RMK AO2 SLP148 T01890033 10189 20122 56014
KIZG 201654Z AUTO 29009G17KT 10SM CLR 19/03 A2997 RMK AO2 SLP151 T01890028
KIZG 201554Z AUTO 27008G16KT 240V310 10SM CLR 18/03 A2999 RMK AO2 SLP157 T01830028
KIZG 201454Z AUTO 28008KT 240V310 10SM CLR 18/03 A3001 RMK AO2 SLP162 T01780033 50002
KIZG 201354Z AUTO VRB04KT 10SM CLR 17/04 A3001 RMK AO2 SLP164 T01670039
KIZG 201254Z AUTO VRB04KT 10SM CLR 14/03 A3001 RMK AO2 SLP163 T01440033
KIZG 201154Z AUTO 25003KT 10SM CLR 12/03 A3000 RMK AO2 SLP159 T01220033 10150 20094 53017
KIZG 201054Z AUTO 29004KT 10SM CLR 12/03 A2999 RMK AO2 SLP154 T01220028
KIZG 200954Z AUTO 28012G19KT 10SM CLR 14/03 A2996 RMK AO2 SLP144 T01440028
KIZG 200854Z AUTO 29009KT 10SM CLR 14/04 A2995 RMK AO2 SLP141 T01440044 53010
KIZG 200754Z AUTO VRB03KT 10SM CLR 11/07 A2993 RMK AO2 SLP136 T01060067
KIZG 200654Z AUTO 16004KT 10SM CLR 11/07 A2992 RMK AO2 SLP132 T01060072
KIZG 200554Z AUTO 00000KT 10SM CLR 13/07 A2992 RMK AO2 SLP131 T01280067 10172 20100 53004
KIZG 200454Z AUTO 34003KT 10SM BKN070 12/07 A2991 RMK AO2 SLP130 T01170067 402221006
KIZG 200354Z AUTO 28004KT 10SM CLR 13/06 A2990 RMK AO2 SLP125 T01280061
KIZG 200254Z AUTO VRB03KT 10SM CLR 14/06 A2991 RMK AO2 SLP128 T01440061 50003
KIZG 200154Z AUTO 15005KT 10SM CLR 14/06 A2991 RMK AO2 SLP130 T01440061
KIZG 200054Z AUTO VRB05KT 10SM CLR 16/06 A2990 RMK AO2 SLP128 T01610061
KIZG 192354Z AUTO 21007KT 10SM CLR 17/06 A2990 RMK AO2 SLP126 T01720061 10222 20172 55003
KIZG 192254Z AUTO VRB03KT 10SM CLR 18/06 A2989 RMK AO2 SLP125 T01830056
KIZG 192154Z AUTO 20005KT 10SM CLR 19/06 A2989 RMK AO2 SLP124 T01940061
KIZG 192054Z AUTO 20009G20KT 170V240 10SM CLR 21/06 A2990 RMK AO2 SLP128 T02110061 56035
KIZG 191954Z AUTO 20010G17KT 10SM CLR 22/07 A2993 RMK AO2 PRESFR SLP137 T02170072
KIZG 191854Z AUTO VRB06KT 10SM CLR 22/07 A2997 RMK AO2 SLP151 T02220067
KIZG 191754Z AUTO 20008KT 10SM CLR 22/08 A3001 RMK AO2 SLP163 T02220083 10222 20017 56035 $
KIZG 191654Z AUTO 20011G19KT 170V230 10SM CLR 21/08 A3004 RMK AO2 SLP173 T02060078 $
KIZG 191554Z AUTO 18010G15KT 10SM CLR 20/09 A3008 RMK AO2 SLP187 T02000089 $
KIZG 191454Z AUTO 00000KT 10SM CLR 16/09 A3011 RMK AO2 SLP199 T01610094 58021 $
KIZG 191354Z AUTO 00000KT 10SM CLR 11/08 A3014 RMK AO2 SLP208 T01110078 $